createdAt,value
2018-03-20T00:00:11.450Z,-2.28
2018-03-20T00:01:11.662Z,-2.23
2018-03-20T00:02:11.629Z,-2.34
2018-03-20T00:03:11.597Z,-2.37
2018-03-20T00:04:11.555Z,-2.32
2018-03-20T00:05:11.524Z,-2.41
2018-03-20T00:06:11.522Z,-2.41
2018-03-20T00:07:11.453Z,-2.32
2018-03-20T00:08:11.412Z,-2.47
2018-03-20T00:09:11.377Z,-2.4
2018-03-20T00:10:11.089Z,-2.45
2018-03-20T00:11:11.059Z,-2.37
2018-03-20T00:12:11.268Z,-2.44
2018-03-20T00:13:11.230Z,-2.42
2018-03-20T00:14:10.945Z,-2.47
2018-03-20T00:15:10.914Z,-2.56
2018-03-20T00:16:10.877Z,-2.47
2018-03-20T00:17:11.088Z,-2.42
2018-03-20T00:18:11.053Z,-2.5
2018-03-20T00:19:10.770Z,-2.44
2018-03-20T00:20:10.980Z,-2.44
2018-03-20T00:21:10.945Z,-2.41
2018-03-20T00:22:10.913Z,-2.38
2018-03-20T00:23:10.876Z,-2.37
2018-03-20T00:24:10.593Z,-2.35
2018-03-20T00:25:10.803Z,-2.35
2018-03-20T00:26:10.519Z,-2.35
2018-03-20T00:27:10.730Z,-2.32
2018-03-20T00:28:10.447Z,-2.37
2018-03-20T00:29:10.413Z,-2.34
2018-03-20T00:30:10.376Z,-2.37
2018-03-20T00:31:10.582Z,-2.34
2018-03-20T00:32:10.549Z,-2.37
2018-03-20T00:33:10.273Z,-2.38
2018-03-20T00:34:10.482Z,-2.41
2018-03-20T00:35:10.448Z,-2.37
2018-03-20T00:36:10.410Z,-2.37
2018-03-20T00:37:10.126Z,-2.34
2018-03-20T00:38:10.489Z,-2.41
2018-03-20T00:39:10.302Z,-2.42
2018-03-20T00:40:10.271Z,-2.47
2018-03-20T00:41:10.230Z,-2.44
2018-03-20T00:42:10.206Z,-2.41
2018-03-20T00:43:10.160Z,-2.44
2018-03-20T00:44:10.154Z,-2.38
2018-03-20T00:45:10.091Z,-2.3
2018-03-20T00:46:10.054Z,-2.34
2018-03-20T00:47:10.030Z,-2.38
2018-03-20T00:48:09.729Z,-2.34
2018-03-20T00:49:09.950Z,-2.34
2018-03-20T00:50:09.906Z,-2.37
2018-03-20T00:51:09.875Z,-2.37
2018-03-20T00:52:09.836Z,-2.41
2018-03-20T00:53:09.803Z,-2.38
2018-03-20T00:54:09.518Z,-2.34
2018-03-20T00:55:09.489Z,-2.35
2018-03-20T00:56:09.694Z,-2.37
2018-03-20T00:57:09.657Z,-2.37
2018-03-20T00:58:09.621Z,-2.4
2018-03-20T00:59:09.587Z,-2.37
2018-03-20T01:00:09.305Z,-2.3
2018-03-20T01:01:09.515Z,-2.3
2018-03-20T01:02:09.494Z,-2.41
2018-03-20T01:03:09.445Z,-2.38
2018-03-20T01:04:09.411Z,-2.34
2018-03-20T01:05:09.124Z,-2.37
2018-03-20T01:06:09.335Z,-2.4
2018-03-20T01:07:09.305Z,-2.35
2018-03-20T01:08:09.264Z,-2.4
2018-03-20T01:09:09.229Z,-2.34
2018-03-20T01:10:08.944Z,-2.34
2018-03-20T01:11:08.659Z,-2.38
2018-03-20T01:12:09.120Z,-2.38
2018-03-20T01:13:09.090Z,-2.35
2018-03-20T01:14:09.377Z,-2.34
2018-03-20T01:15:09.019Z,-2.35
2018-03-20T01:16:08.727Z,-2.34
2018-03-20T01:17:08.696Z,-2.37
2018-03-20T01:18:08.916Z,-2.34
2018-03-20T01:19:08.880Z,-2.44
2018-03-20T01:20:08.340Z,-2.47
2018-03-20T01:21:08.812Z,-2.52
2018-03-20T01:22:08.765Z,-2.47
2018-03-20T01:23:08.735Z,-2.48
2018-03-20T01:24:08.696Z,-2.41
2018-03-20T01:25:08.425Z,-2.52
2018-03-20T01:26:08.621Z,-2.5
2018-03-20T01:27:08.591Z,-2.52
2018-03-20T01:28:08.551Z,-2.44
2018-03-20T01:29:08.514Z,-2.5
2018-03-20T01:30:08.481Z,-2.47
2018-03-20T01:31:08.461Z,-2.5
2018-03-20T01:32:08.158Z,-2.45
2018-03-20T01:33:08.372Z,-2.5
2018-03-20T01:34:08.435Z,-2.47
2018-03-20T01:35:08.343Z,-2.48
2018-03-20T01:36:08.275Z,-2.47
2018-03-20T01:37:07.736Z,-2.47
2018-03-20T01:38:07.941Z,-2.5
2018-03-20T01:39:08.164Z,-2.48
2018-03-20T01:40:08.132Z,-2.4
2018-03-20T01:41:08.085Z,-2.47
2018-03-20T01:42:07.805Z,-2.44
2018-03-20T01:43:08.026Z,-2.48
2018-03-20T01:44:07.983Z,-2.45
2018-03-20T01:45:07.982Z,-2.42
2018-03-20T01:46:07.906Z,-2.45
2018-03-20T01:47:07.872Z,-2.3
2018-03-20T01:48:07.837Z,-2.34
2018-03-20T01:49:07.805Z,-2.35
2018-03-20T01:50:07.266Z,-2.38
2018-03-20T01:51:07.727Z,-2.25
2018-03-20T01:52:07.442Z,-2.28
2018-03-20T01:53:07.658Z,-2.25
2018-03-20T01:54:07.624Z,-2.19
2018-03-20T01:55:07.591Z,-2.22
2018-03-20T01:56:07.548Z,-2.21
2018-03-20T01:57:07.263Z,-2.25
2018-03-20T01:58:07.230Z,-2.25
2018-03-20T01:59:07.444Z,-2.22
2018-03-20T02:00:07.417Z,-2.25
2018-03-20T02:01:07.123Z,-2.21
2018-03-20T02:02:07.088Z,-2.23
2018-03-20T02:03:06.805Z,-2.25
2018-03-20T02:04:07.274Z,-2.13
2018-03-20T02:05:06.984Z,-2.13
2018-03-20T02:06:07.196Z,-2.04
2018-03-20T02:07:07.160Z,-2.04
2018-03-20T02:08:07.129Z,-2.01
2018-03-20T02:09:07.086Z,-1.89
2018-03-20T02:10:07.063Z,-1.86
2018-03-20T02:11:06.519Z,-1.9
2018-03-20T02:12:06.988Z,-1.83
2018-03-20T02:13:06.948Z,-1.77
2018-03-20T02:14:06.665Z,-1.71
2018-03-20T02:15:06.628Z,-1.68
2018-03-20T02:16:06.842Z,-1.58
2018-03-20T02:17:06.806Z,-1.59
2018-03-20T02:18:06.523Z,-1.59
2018-03-20T02:19:06.240Z,-1.59
2018-03-20T02:20:06.706Z,-1.44
2018-03-20T02:21:06.678Z,-1.5
2018-03-20T02:22:06.382Z,-1.56
2018-03-20T02:23:06.352Z,-1.44
2018-03-20T02:24:06.568Z,-1.51
2018-03-20T02:25:06.530Z,-1.38
2018-03-20T02:26:06.509Z,-1.37
2018-03-20T02:27:06.460Z,-1.38
2018-03-20T02:28:06.424Z,-1.32
2018-03-20T02:29:06.141Z,-1.43
2018-03-20T02:30:06.112Z,-1.41
2018-03-20T02:31:06.328Z,-1.37
2018-03-20T02:32:06.051Z,-1.43
2018-03-20T02:33:06.257Z,-1.33
2018-03-20T02:34:06.222Z,-1.29
2018-03-20T02:35:05.936Z,-1.35
2018-03-20T02:36:06.154Z,-1.3
2018-03-20T02:37:06.129Z,-1.29
2018-03-20T02:38:05.839Z,-1.27
2018-03-20T02:39:06.052Z,-1.32
2018-03-20T02:40:05.767Z,-1.25
2018-03-20T02:41:05.998Z,-1.26
2018-03-20T02:42:05.953Z,-1.12
2018-03-20T02:43:05.914Z,-1.15
2018-03-20T02:44:05.628Z,-1.11
2018-03-20T02:45:05.863Z,-1.15
2018-03-20T02:46:05.563Z,-1.15
2018-03-20T02:47:05.533Z,-1.17
2018-03-20T02:48:05.737Z,-1.14
2018-03-20T02:49:05.712Z,-1.14
2018-03-20T02:50:05.435Z,-1.02
2018-03-20T02:51:05.860Z,-1.07
2018-03-20T02:52:05.352Z,-1.04
2018-03-20T02:53:05.577Z,-1.05
2018-03-20T02:54:05.535Z,-0.99
2018-03-20T02:55:05.515Z,-0.9
2018-03-20T02:56:05.473Z,-0.91
2018-03-20T02:57:05.454Z,-0.96
2018-03-20T02:58:05.400Z,-0.96
2018-03-20T02:59:05.120Z,-0.93
2018-03-20T03:00:05.338Z,-0.96
2018-03-20T03:01:05.300Z,-0.9
2018-03-20T03:02:05.261Z,-0.91
2018-03-20T03:03:05.236Z,-0.86
2018-03-20T03:04:04.944Z,-0.86
2018-03-20T03:05:05.160Z,-0.85
2018-03-20T03:06:05.127Z,-0.89
2018-03-20T03:07:04.846Z,-0.85
2018-03-20T03:08:05.068Z,-0.83
2018-03-20T03:09:05.033Z,-0.83
2018-03-20T03:10:04.986Z,-0.86
2018-03-20T03:11:04.968Z,-0.82
2018-03-20T03:12:04.921Z,-0.82
2018-03-20T03:13:04.891Z,-0.85
2018-03-20T03:14:04.856Z,-0.89
2018-03-20T03:15:04.571Z,-0.89
2018-03-20T03:16:04.884Z,-0.94
2018-03-20T03:17:04.256Z,-0.86
2018-03-20T03:18:04.473Z,-0.97
2018-03-20T03:19:04.693Z,-0.9
2018-03-20T03:20:04.399Z,-0.93
2018-03-20T03:21:04.626Z,-0.83
2018-03-20T03:22:04.580Z,-0.96
2018-03-20T03:23:04.300Z,-0.93
2018-03-20T03:24:04.265Z,-0.91
2018-03-20T03:25:04.230Z,-0.91
2018-03-20T03:26:04.548Z,-0.89
2018-03-20T03:27:04.169Z,-0.94
2018-03-20T03:28:04.131Z,-0.89
2018-03-20T03:29:04.102Z,-0.85
2018-03-20T03:30:04.071Z,-0.77
2018-03-20T03:31:04.282Z,-0.83
2018-03-20T03:32:04.243Z,-0.8
2018-03-20T03:33:04.209Z,-0.77
2018-03-20T03:34:03.925Z,-0.75
2018-03-20T03:35:04.139Z,-0.75
2018-03-20T03:36:03.858Z,-0.75
2018-03-20T03:37:04.074Z,-0.71
2018-03-20T03:38:04.044Z,-0.74
2018-03-20T03:39:03.765Z,-0.67
2018-03-20T03:40:03.976Z,-0.72
2018-03-20T03:41:03.440Z,-0.75
2018-03-20T03:42:03.408Z,-0.72
2018-03-20T03:43:03.871Z,-0.74
2018-03-20T03:44:03.838Z,-0.75
2018-03-20T03:45:03.806Z,-0.68
2018-03-20T03:46:03.518Z,-0.72
2018-03-20T03:47:03.499Z,-0.71
2018-03-20T03:48:03.706Z,-0.68
2018-03-20T03:49:03.667Z,-0.59
2018-03-20T03:50:03.630Z,-0.77
2018-03-20T03:51:03.614Z,-0.74
2018-03-20T03:52:03.319Z,-0.74
2018-03-20T03:53:03.534Z,-0.65
2018-03-20T03:54:03.502Z,-0.59
2018-03-20T03:55:03.467Z,-0.78
2018-03-20T03:56:03.432Z,-0.71
2018-03-20T03:57:03.152Z,-0.77
2018-03-20T03:58:03.365Z,-0.7
2018-03-20T03:59:03.334Z,-0.77
2018-03-20T04:00:03.299Z,-0.71
2018-03-20T04:01:03.272Z,-0.72
2018-03-20T04:02:03.226Z,-0.7
2018-03-20T04:03:03.198Z,-0.74
2018-03-20T04:04:03.156Z,-0.8
2018-03-20T04:05:03.140Z,-0.86
2018-03-20T04:06:03.096Z,-0.97
2018-03-20T04:07:03.068Z,-0.94
2018-03-20T04:08:03.032Z,-0.99
2018-03-20T04:09:02.993Z,-1.05
2018-03-20T04:10:02.960Z,-1.05
2018-03-20T04:11:02.927Z,-1.05
2018-03-20T04:12:02.995Z,-1.09
2018-03-20T04:13:02.856Z,-1.22
2018-03-20T04:14:02.821Z,-1.22
2018-03-20T04:15:02.797Z,-1.17
2018-03-20T04:16:02.761Z,-1.22
2018-03-20T04:17:02.471Z,-1.22
2018-03-20T04:18:02.695Z,-1.3
2018-03-20T04:19:02.659Z,-1.4
2018-03-20T04:20:02.625Z,-1.44
2018-03-20T04:21:02.598Z,-1.47
2018-03-20T04:22:02.552Z,-1.46
2018-03-20T04:23:02.538Z,-1.51
2018-03-20T04:24:02.482Z,-1.48
2018-03-20T04:25:02.448Z,-1.61
2018-03-20T04:26:02.419Z,-1.56
2018-03-20T04:27:02.378Z,-1.62
2018-03-20T04:28:02.098Z,-1.59
2018-03-20T04:29:02.313Z,-1.62
2018-03-20T04:30:02.279Z,-1.56
2018-03-20T04:31:02.245Z,-1.68
2018-03-20T04:32:02.212Z,-1.71
2018-03-20T04:33:01.926Z,-1.77
2018-03-20T04:34:02.143Z,-1.8
2018-03-20T04:35:02.108Z,-1.84
2018-03-20T04:36:02.075Z,-1.87
2018-03-20T04:37:02.044Z,-1.87
2018-03-20T04:38:02.008Z,-1.95
2018-03-20T04:39:01.978Z,-1.97
2018-03-20T04:40:01.935Z,-2
2018-03-20T04:41:01.905Z,-1.87
2018-03-20T04:42:01.867Z,-1.92
2018-03-20T04:43:01.832Z,-1.94
2018-03-20T04:44:01.799Z,-1.95
2018-03-20T04:45:01.771Z,-1.89
2018-03-20T04:46:01.727Z,-1.9
2018-03-20T04:47:01.695Z,-1.86
2018-03-20T04:48:01.414Z,-1.87
2018-03-20T04:49:01.387Z,-1.86
2018-03-20T04:50:01.593Z,-1.87
2018-03-20T04:51:01.558Z,-1.82
2018-03-20T04:52:01.529Z,-1.72
2018-03-20T04:53:01.638Z,-1.71
2018-03-20T04:54:01.458Z,-1.8
2018-03-20T04:55:01.418Z,-1.74
2018-03-20T04:56:01.396Z,-1.8
2018-03-20T04:57:01.349Z,-1.77
2018-03-20T04:58:01.323Z,-1.72
2018-03-20T04:59:01.284Z,-1.79
2018-03-20T05:00:01.246Z,-1.72
2018-03-20T05:01:01.215Z,-1.76
2018-03-20T05:02:01.175Z,-1.74
2018-03-20T05:03:00.893Z,-1.69
2018-03-20T05:04:01.111Z,-1.69
2018-03-20T05:05:01.079Z,-1.65
2018-03-20T05:06:01.035Z,-1.71
2018-03-20T05:07:01.001Z,-1.66
2018-03-20T05:08:00.978Z,-1.65
2018-03-20T05:09:00.938Z,-1.68
2018-03-20T05:10:00.900Z,-1.69
2018-03-20T05:11:00.864Z,-1.71
2018-03-20T05:12:00.836Z,-1.64
2018-03-20T05:13:00.796Z,-1.69
2018-03-20T05:14:00.767Z,-1.58
2018-03-20T05:15:00.728Z,-1.66
2018-03-20T05:16:00.688Z,-1.62
2018-03-20T05:17:00.655Z,-1.62
2018-03-20T05:18:00.633Z,-1.62
2018-03-20T05:19:00.347Z,-1.56
2018-03-20T05:20:00.554Z,-1.64
2018-03-20T05:21:00.520Z,-1.61
2018-03-20T05:22:00.490Z,-1.64
2018-03-20T05:23:00.462Z,-1.65
2018-03-20T05:24:00.415Z,-1.62
2018-03-20T05:25:00.389Z,-1.62
2018-03-20T05:26:00.351Z,-1.51
2018-03-20T05:27:00.317Z,-1.5
2018-03-20T05:28:00.284Z,-1.56
2018-03-20T05:29:00.335Z,-1.46
2018-03-20T05:30:00.214Z,-1.44
2018-03-20T05:31:00.191Z,-1.46
2018-03-20T05:32:00.595Z,-1.47
2018-03-20T05:33:00.134Z,-1.44
2018-03-20T05:34:00.076Z,-1.5
2018-03-20T05:35:00.044Z,-1.5
2018-03-20T05:36:00.004Z,-1.44
2018-03-20T05:36:59.970Z,-1.33
2018-03-20T05:37:59.943Z,-1.37
2018-03-20T05:38:59.902Z,-1.32
2018-03-20T05:39:59.878Z,-1.32
2018-03-20T05:40:59.835Z,-1.27
2018-03-20T05:41:59.843Z,-1.3
2018-03-20T05:42:59.767Z,-1.3
2018-03-20T05:43:59.832Z,-1.26
2018-03-20T05:44:59.698Z,-1.26
2018-03-20T05:45:59.666Z,-1.25
2018-03-20T05:46:59.625Z,-1.22
2018-03-20T05:47:59.604Z,-1.17
2018-03-20T05:48:59.064Z,-1.12
2018-03-20T05:49:59.278Z,-1.12
2018-03-20T05:50:59.486Z,-1.17
2018-03-20T05:51:59.461Z,-1.12
2018-03-20T05:52:59.426Z,-1.08
2018-03-20T05:53:59.389Z,-1.14
2018-03-20T05:54:59.359Z,-1.05
2018-03-20T05:55:59.073Z,-1.04
2018-03-20T05:56:59.292Z,-1.12
2018-03-20T05:57:59.256Z,-1.04
2018-03-20T05:58:59.222Z,-1.05
2018-03-20T05:59:59.080Z,-1.02
2018-03-20T06:00:59.151Z,-1.02
2018-03-20T06:01:59.118Z,-1.07
2018-03-20T06:02:59.084Z,-1.05
2018-03-20T06:03:59.048Z,-1.01
2018-03-20T06:04:59.026Z,-1.04
2018-03-20T06:05:58.734Z,-0.91
2018-03-20T06:06:58.956Z,-0.96
2018-03-20T06:07:58.923Z,-0.99
2018-03-20T06:08:58.634Z,-0.91
2018-03-20T06:09:58.850Z,-0.91
2018-03-20T06:10:58.818Z,-0.9
2018-03-20T06:11:58.785Z,-0.82
2018-03-20T06:12:58.742Z,-0.85
2018-03-20T06:13:58.463Z,-0.9
2018-03-20T06:14:58.675Z,-0.8
2018-03-20T06:15:58.398Z,-0.71
2018-03-20T06:16:58.966Z,-0.75
2018-03-20T06:17:58.590Z,-0.72
2018-03-20T06:18:58.546Z,-0.67
2018-03-20T06:19:58.475Z,-0.68
2018-03-20T06:20:58.474Z,-0.68
2018-03-20T06:21:58.302Z,-0.62
2018-03-20T06:22:58.279Z,-0.61
2018-03-20T06:23:58.376Z,-0.64
2018-03-20T06:24:58.348Z,-0.5
2018-03-20T06:25:58.309Z,-0.49
2018-03-20T06:26:58.269Z,-0.61
2018-03-20T06:27:58.238Z,-0.54
2018-03-20T06:28:58.203Z,-0.52
2018-03-20T06:29:57.673Z,-0.39
2018-03-20T06:30:58.134Z,-0.44
2018-03-20T06:31:58.105Z,-0.47
2018-03-20T06:32:58.075Z,-0.5
2018-03-20T06:33:58.033Z,-0.34
2018-03-20T06:34:57.756Z,-0.35
2018-03-20T06:35:57.973Z,-0.32
2018-03-20T06:36:57.945Z,-0.34
2018-03-20T06:37:57.907Z,-0.34
2018-03-20T06:38:57.871Z,-0.38
2018-03-20T06:39:57.841Z,-0.32
2018-03-20T06:40:57.814Z,-0.36
2018-03-20T06:41:57.521Z,-0.28
2018-03-20T06:42:57.738Z,-0.25
2018-03-20T06:43:57.708Z,-0.23
2018-03-20T06:44:57.666Z,-0.25
2018-03-20T06:45:57.638Z,-0.18
2018-03-20T06:46:57.612Z,-0.17
2018-03-20T06:47:57.573Z,-0.06
2018-03-20T06:48:57.551Z,-0.14
2018-03-20T06:49:57.499Z,-0.14
2018-03-20T06:50:57.268Z,-0.08
2018-03-20T06:51:57.440Z,-0.06
2018-03-20T06:52:57.406Z,-0.02
2018-03-20T06:53:57.374Z,0.08
2018-03-20T06:54:57.093Z,0.04
2018-03-20T06:55:57.320Z,0.05
2018-03-20T06:56:57.274Z,0.11
2018-03-20T06:57:57.252Z,0.1
2018-03-20T06:58:56.959Z,0.26
2018-03-20T06:59:57.175Z,0.29
2018-03-20T07:00:57.144Z,0.29
2018-03-20T07:01:57.110Z,0.26
2018-03-20T07:02:57.075Z,0.41
2018-03-20T07:03:57.047Z,0.41
2018-03-20T07:04:56.763Z,0.41
2018-03-20T07:05:56.979Z,0.39
2018-03-20T07:06:56.943Z,0.4
2018-03-20T07:07:56.924Z,0.43
2018-03-20T07:08:57.171Z,0.44
2018-03-20T07:09:56.847Z,0.44
2018-03-20T07:10:56.574Z,0.49
2018-03-20T07:11:56.862Z,0.41
2018-03-20T07:12:57.941Z,0.4
2018-03-20T07:13:56.468Z,0.47
2018-03-20T07:14:56.698Z,0.39
2018-03-20T07:15:56.407Z,0.4
2018-03-20T07:16:56.621Z,0.29
2018-03-20T07:17:56.590Z,0.34
2018-03-20T07:18:56.554Z,0.32
2018-03-20T07:19:56.517Z,0.25
2018-03-20T07:20:56.500Z,0.26
2018-03-20T07:21:56.455Z,0.29
2018-03-20T07:22:56.476Z,0.36
2018-03-20T07:23:56.390Z,0.32
2018-03-20T07:24:56.360Z,0.41
2018-03-20T07:25:56.379Z,0.4
2018-03-20T07:26:56.343Z,0.47
2018-03-20T07:27:56.014Z,0.56
2018-03-20T07:28:55.981Z,0.59
2018-03-20T07:29:56.201Z,0.47
2018-03-20T07:30:55.910Z,0.68
2018-03-20T07:31:56.132Z,0.73
2018-03-20T07:32:56.096Z,0.69
2018-03-20T07:33:56.063Z,0.69
2018-03-20T07:34:56.034Z,0.74
2018-03-20T07:35:56.007Z,0.78
2018-03-20T07:36:55.975Z,0.77
2018-03-20T07:37:55.986Z,0.92
2018-03-20T07:38:55.655Z,0.96
2018-03-20T07:39:55.668Z,1.01
2018-03-20T07:40:56.092Z,1.06
2018-03-20T07:41:55.923Z,1.12
2018-03-20T07:42:55.533Z,1.23
2018-03-20T07:43:55.744Z,1.23
2018-03-20T07:44:55.222Z,1.24
2018-03-20T07:45:55.430Z,1.3
2018-03-20T07:46:55.649Z,1.32
2018-03-20T07:47:55.624Z,1.28
2018-03-20T07:48:55.336Z,1.37
2018-03-20T07:49:55.554Z,1.31
2018-03-20T07:50:55.545Z,1.3
2018-03-20T07:51:55.244Z,1.34
2018-03-20T07:52:55.213Z,1.28
2018-03-20T07:53:55.429Z,1.22
2018-03-20T07:54:55.398Z,1.3
2018-03-20T07:55:55.367Z,1.3
2018-03-20T07:56:55.086Z,1.44
2018-03-20T07:57:55.300Z,1.34
2018-03-20T07:58:55.266Z,1.45
2018-03-20T07:59:55.235Z,1.41
2018-03-20T08:00:55.206Z,1.49
2018-03-20T08:01:55.180Z,1.45
2018-03-20T08:02:55.154Z,1.42
2018-03-20T08:03:55.114Z,1.5
2018-03-20T08:04:55.078Z,1.44
2018-03-20T08:05:55.083Z,1.53
2018-03-20T08:06:55.016Z,1.52
2018-03-20T08:07:55.139Z,1.55
2018-03-20T08:08:54.969Z,1.5
2018-03-20T08:09:54.957Z,1.68
2018-03-20T08:10:56.332Z,1.62
2018-03-20T08:11:54.899Z,1.71
2018-03-20T08:12:54.845Z,1.74
2018-03-20T08:13:54.544Z,1.78
2018-03-20T08:14:55.432Z,1.84
2018-03-20T08:15:55.202Z,1.87
2018-03-20T08:16:54.705Z,1.91
2018-03-20T08:17:54.650Z,1.88
2018-03-20T08:18:54.643Z,2.04
2018-03-20T08:19:54.640Z,1.99
2018-03-20T08:20:54.327Z,1.99
2018-03-20T08:21:54.545Z,1.97
2018-03-20T08:22:54.515Z,2.08
2018-03-20T08:23:54.494Z,2.04
2018-03-20T08:24:54.462Z,2.11
2018-03-20T08:25:54.179Z,2.15
2018-03-20T08:26:54.499Z,2.17
2018-03-20T08:27:54.362Z,2.26
2018-03-20T08:28:54.507Z,2.31
2018-03-20T08:29:54.448Z,2.24
2018-03-20T08:30:54.270Z,2.29
2018-03-20T08:31:54.240Z,2.32
2018-03-20T08:32:54.214Z,2.29
2018-03-20T08:33:54.189Z,2.36
2018-03-20T08:34:54.150Z,2.33
2018-03-20T08:35:54.116Z,2.51
2018-03-20T08:36:54.088Z,2.43
2018-03-20T08:37:54.072Z,2.43
2018-03-20T08:38:54.041Z,2.56
2018-03-20T08:39:53.997Z,2.6
2018-03-20T08:40:53.472Z,2.68
2018-03-20T08:41:53.938Z,2.62
2018-03-20T08:42:53.910Z,2.74
2018-03-20T08:43:53.881Z,2.82
2018-03-20T08:44:53.351Z,2.72
2018-03-20T08:45:53.569Z,2.77
2018-03-20T08:46:53.790Z,2.75
2018-03-20T08:47:53.264Z,2.77
2018-03-20T08:48:53.745Z,2.83
2018-03-20T08:49:53.698Z,2.9
2018-03-20T08:50:53.174Z,2.86
2018-03-20T08:51:53.640Z,2.87
2018-03-20T08:52:53.617Z,2.87
2018-03-20T08:53:53.588Z,2.93
2018-03-20T08:54:53.553Z,2.85
2018-03-20T08:55:53.278Z,2.75
2018-03-20T08:56:53.497Z,2.8
2018-03-20T08:57:53.465Z,2.71
2018-03-20T08:58:53.437Z,2.85
2018-03-20T08:59:53.406Z,2.71
2018-03-20T09:00:53.380Z,2.83
2018-03-20T09:01:53.378Z,2.75
2018-03-20T09:02:53.321Z,2.83
2018-03-20T09:03:53.289Z,2.8
2018-03-20T09:04:53.012Z,2.8
2018-03-20T09:05:53.228Z,2.83
2018-03-20T09:06:53.200Z,2.89
2018-03-20T09:07:53.171Z,2.98
2018-03-20T09:08:53.157Z,3.07
2018-03-20T09:09:53.286Z,3.13
2018-03-20T09:10:53.116Z,3.08
2018-03-20T09:11:53.054Z,3.19
2018-03-20T09:12:52.781Z,3.18
2018-03-20T09:13:52.787Z,3.18
2018-03-20T09:14:52.966Z,3.22
2018-03-20T09:15:52.938Z,3.31
2018-03-20T09:16:52.913Z,3.36
2018-03-20T09:17:52.657Z,3.37
2018-03-20T09:18:52.851Z,3.37
2018-03-20T09:19:52.825Z,3.37
2018-03-20T09:20:52.792Z,3.32
2018-03-20T09:21:52.764Z,3.26
2018-03-20T09:22:52.735Z,3.32
2018-03-20T09:23:52.704Z,3.4
2018-03-20T09:24:52.683Z,3.4
2018-03-20T09:25:52.646Z,3.47
2018-03-20T09:26:52.614Z,3.37
2018-03-20T09:27:52.584Z,3.44
2018-03-20T09:28:52.666Z,3.36
2018-03-20T09:29:52.589Z,3.55
2018-03-20T09:30:52.253Z,3.47
2018-03-20T09:31:52.221Z,3.59
2018-03-20T09:32:52.439Z,3.55
2018-03-20T09:33:52.424Z,3.6
2018-03-20T09:34:52.384Z,3.53
2018-03-20T09:35:52.352Z,3.5
2018-03-20T09:36:52.322Z,3.59
2018-03-20T09:37:52.386Z,3.69
2018-03-20T09:38:52.267Z,3.7
2018-03-20T09:39:52.237Z,3.76
2018-03-20T09:40:51.957Z,3.74
2018-03-20T09:41:52.179Z,3.73
2018-03-20T09:42:52.191Z,3.74
2018-03-20T09:43:52.226Z,3.86
2018-03-20T09:44:52.085Z,3.78
2018-03-20T09:45:52.058Z,3.78
2018-03-20T09:46:52.033Z,3.87
2018-03-20T09:47:52.063Z,3.84
2018-03-20T09:48:51.970Z,3.91
2018-03-20T09:49:51.689Z,3.95
2018-03-20T09:50:51.914Z,4.01
2018-03-20T09:51:51.882Z,3.96
2018-03-20T09:52:51.848Z,3.91
2018-03-20T09:53:51.824Z,3.95
2018-03-20T09:54:51.539Z,3.92
2018-03-20T09:55:51.756Z,3.99
2018-03-20T09:56:51.731Z,4.05
2018-03-20T09:57:51.699Z,4.05
2018-03-20T09:58:51.420Z,4.05
2018-03-20T09:59:51.864Z,3.99
2018-03-20T10:00:51.388Z,4.05
2018-03-20T10:01:51.584Z,4.04
2018-03-20T10:02:51.559Z,4.04
2018-03-20T10:03:51.550Z,3.99
2018-03-20T10:04:51.692Z,4.02
2018-03-20T10:05:51.461Z,4.05
2018-03-20T10:06:51.436Z,3.99
2018-03-20T10:07:51.996Z,4.02
2018-03-20T10:08:51.474Z,4.06
2018-03-20T10:09:51.370Z,4.17
2018-03-20T10:10:51.944Z,4.22
2018-03-20T10:11:51.687Z,4.3
2018-03-20T10:12:51.277Z,4.34
2018-03-20T10:13:52.042Z,4.35
2018-03-20T10:14:51.242Z,4.42
2018-03-20T10:15:51.469Z,4.38
2018-03-20T10:16:50.886Z,4.37
2018-03-20T10:17:50.860Z,4.42
2018-03-20T10:18:51.079Z,4.35
2018-03-20T10:19:51.053Z,4.45
2018-03-20T10:20:51.015Z,4.45
2018-03-20T10:21:50.995Z,4.38
2018-03-20T10:22:50.709Z,4.55
2018-03-20T10:23:51.007Z,4.58
2018-03-20T10:24:50.398Z,4.59
2018-03-20T10:25:50.870Z,4.55
2018-03-20T10:26:50.589Z,4.53
2018-03-20T10:27:50.808Z,4.53
2018-03-20T10:28:50.531Z,4.5
2018-03-20T10:29:50.746Z,4.58
2018-03-20T10:30:50.717Z,4.67
2018-03-20T10:31:50.692Z,4.75
2018-03-20T10:32:50.411Z,4.75
2018-03-20T10:33:50.394Z,4.75
2018-03-20T10:34:50.602Z,4.86
2018-03-20T10:35:50.576Z,4.89
2018-03-20T10:36:50.543Z,4.96
2018-03-20T10:37:50.507Z,4.93
2018-03-20T10:38:50.484Z,5.04
2018-03-20T10:39:50.452Z,4.82
2018-03-20T10:40:50.427Z,4.94
2018-03-20T10:41:50.391Z,4.93
2018-03-20T10:42:50.111Z,5
2018-03-20T10:43:50.488Z,5.02
2018-03-20T10:44:50.304Z,5.05
2018-03-20T10:45:50.027Z,5.11
2018-03-20T10:46:49.993Z,5.08
2018-03-20T10:47:49.975Z,5.12
2018-03-20T10:48:50.292Z,5.25
2018-03-20T10:49:49.980Z,5.28
2018-03-20T10:50:50.124Z,5.29
2018-03-20T10:51:50.110Z,5.41
2018-03-20T10:52:50.067Z,5.47
2018-03-20T10:53:50.041Z,5.48
2018-03-20T10:54:49.862Z,5.46
2018-03-20T10:55:49.982Z,5.54
2018-03-20T10:56:49.953Z,5.64
2018-03-20T10:57:49.929Z,5.62
2018-03-20T10:58:49.951Z,5.57
2018-03-20T10:59:49.865Z,5.57
2018-03-20T11:00:49.589Z,5.54
2018-03-20T11:01:49.568Z,5.41
2018-03-20T11:02:49.793Z,5.54
2018-03-20T11:03:49.506Z,5.41
2018-03-20T11:04:49.726Z,5.46
2018-03-20T11:05:49.695Z,5.43
2018-03-20T11:06:49.670Z,5.43
2018-03-20T11:07:49.637Z,5.44
2018-03-20T11:08:49.362Z,5.51
2018-03-20T11:09:49.681Z,5.47
2018-03-20T11:10:49.560Z,5.53
2018-03-20T11:11:49.272Z,5.5
2018-03-20T11:12:49.509Z,5.47
2018-03-20T11:13:49.218Z,5.53
2018-03-20T11:14:49.447Z,5.53
2018-03-20T11:15:49.448Z,5.51
2018-03-20T11:16:49.377Z,5.5
2018-03-20T11:17:49.373Z,5.57
2018-03-20T11:18:48.821Z,5.59
2018-03-20T11:19:48.870Z,5.71
2018-03-20T11:20:49.264Z,5.64
2018-03-20T11:21:49.227Z,5.69
2018-03-20T11:22:48.958Z,5.71
2018-03-20T11:23:49.171Z,5.73
2018-03-20T11:24:49.159Z,5.76
2018-03-20T11:25:49.111Z,5.79
2018-03-20T11:26:49.115Z,5.86
2018-03-20T11:27:49.052Z,5.94
2018-03-20T11:28:49.156Z,5.94
2018-03-20T11:29:48.998Z,6.12
2018-03-20T11:30:48.718Z,6.16
2018-03-20T11:31:48.946Z,6.07
2018-03-20T11:32:48.920Z,6.17
2018-03-20T11:33:48.640Z,6.16
2018-03-20T11:34:48.860Z,6.11
2018-03-20T11:35:48.827Z,6.3
2018-03-20T11:36:48.805Z,6.27
2018-03-20T11:37:48.523Z,6.24
2018-03-20T11:38:48.743Z,6.16
2018-03-20T11:39:48.577Z,6.14
2018-03-20T11:40:48.688Z,6.22
2018-03-20T11:41:48.407Z,6.12
2018-03-20T11:42:48.626Z,6.26
2018-03-20T11:43:48.598Z,6.3
2018-03-20T11:44:48.574Z,6.26
2018-03-20T11:45:48.538Z,6.31
2018-03-20T11:46:48.264Z,6.28
2018-03-20T11:47:48.487Z,6.3
2018-03-20T11:48:48.457Z,6.35
2018-03-20T11:49:48.426Z,6.3
2018-03-20T11:50:48.409Z,6.36
2018-03-20T11:51:48.123Z,6.44
2018-03-20T11:52:48.343Z,6.46
2018-03-20T11:53:48.323Z,6.45
2018-03-20T11:54:48.284Z,6.62
2018-03-20T11:55:48.266Z,6.56
2018-03-20T11:56:48.236Z,6.69
2018-03-20T11:57:48.200Z,6.72
2018-03-20T11:58:48.175Z,6.78
2018-03-20T11:59:48.147Z,6.69
2018-03-20T12:00:48.116Z,6.62
2018-03-20T12:01:47.841Z,6.63
2018-03-20T12:02:47.809Z,6.66
2018-03-20T12:03:48.047Z,6.67
2018-03-20T12:04:48.080Z,6.72
2018-03-20T12:05:48.036Z,6.72
2018-03-20T12:06:47.952Z,6.7
2018-03-20T12:07:47.921Z,6.74
2018-03-20T12:08:47.644Z,6.77
2018-03-20T12:09:47.868Z,6.88
2018-03-20T12:10:47.834Z,6.78
2018-03-20T12:11:47.814Z,6.88
2018-03-20T12:12:47.783Z,6.93
2018-03-20T12:13:47.758Z,6.81
2018-03-20T12:14:47.757Z,6.81
2018-03-20T12:15:47.449Z,6.84
2018-03-20T12:16:47.419Z,6.92
2018-03-20T12:17:47.650Z,6.95
2018-03-20T12:18:47.364Z,7.02
2018-03-20T12:19:47.644Z,7.06
2018-03-20T12:20:47.308Z,7.02
2018-03-20T12:21:47.528Z,7.13
2018-03-20T12:22:47.515Z,7.03
2018-03-20T12:23:47.226Z,7.15
2018-03-20T12:24:47.446Z,7.1
2018-03-20T12:25:47.419Z,7.1
2018-03-20T12:26:47.396Z,7.14
2018-03-20T12:27:47.367Z,7.13
2018-03-20T12:28:47.341Z,7.11
2018-03-20T12:29:47.064Z,7.15
2018-03-20T12:30:47.280Z,7.21
2018-03-20T12:31:47.253Z,7.28
2018-03-20T12:32:47.231Z,7.32
2018-03-20T12:33:47.200Z,7.32
2018-03-20T12:34:47.169Z,7.31
2018-03-20T12:35:47.187Z,7.32
2018-03-20T12:36:47.115Z,7.4
2018-03-20T12:37:47.184Z,7.47
2018-03-20T12:38:47.068Z,7.48
2018-03-20T12:39:47.040Z,7.54
2018-03-20T12:40:47.005Z,7.6
2018-03-20T12:41:46.982Z,7.58
2018-03-20T12:42:46.699Z,7.61
2018-03-20T12:43:46.676Z,7.56
2018-03-20T12:44:46.655Z,7.57
2018-03-20T12:45:46.867Z,7.53
2018-03-20T12:46:46.852Z,7.53
2018-03-20T12:47:46.818Z,7.51
2018-03-20T12:48:46.539Z,7.45
2018-03-20T12:49:46.773Z,7.45
2018-03-20T12:50:46.731Z,7.53
2018-03-20T12:51:46.462Z,7.63
2018-03-20T12:52:46.679Z,7.61
2018-03-20T12:53:46.647Z,7.61
2018-03-20T12:54:46.382Z,7.58
2018-03-20T12:55:46.605Z,7.67
2018-03-20T12:56:46.569Z,7.72
2018-03-20T12:57:46.679Z,7.63
2018-03-20T12:58:46.303Z,7.6
2018-03-20T12:59:46.489Z,7.63
2018-03-20T13:00:46.459Z,7.79
2018-03-20T13:01:46.435Z,7.69
2018-03-20T13:02:46.153Z,7.61
2018-03-20T13:03:46.386Z,7.58
2018-03-20T13:04:46.436Z,7.48
2018-03-20T13:05:46.326Z,7.43
2018-03-20T13:06:46.298Z,7.42